SBPA METAR and TAF | Updated Today

SBPA METAR

Salgado Filho Airport

Observation time: 6 min. ago

SBPA 200800Z 31004KT 9999 FEW010 BKN045 12/11 Q1021

Need help? Read our tutorial on how to read METARs or read the parsed version below.

Salgado Filho Airport (SBPA) METAR

  • Weather conditions on Fri, 20 May 2022 08:00:00 +0000 (6 min. ago):
  • Present conditions: Dry
  • Clouds: A few at 305 meters; broken sky at 1372 meters
  • Visibility: Greater than 10 km
  • Wind: 310 degrees at 4 knots
  • Temperature: 12 celsius
  • Dew point: 11 celsius
  • Pressure: 1021 millibars
  • Remarks: None


Useful to know...

SBPA TAF

Salgado Filho Airport

TAF SBPA 200300Z 2006/2106 36004KT 9999 FEW008 TN08/2011Z TX17/2018Z BECMG 2011/2012 9999 SCT010 BECMG 2023/2101 FEW010 RMK PEF
Observation time: 5:06 hr. ago
Need help? Read our tutorial on how to read TAFs or read the parsed version below.

Parsed version of TAF for Salgado Filho Airport (SBPA)

  • From 20 May at 06:00 UTC, to day 21 of the month at 06:00 UTC
  • Clouds: A few at 244 meters
  • Visibility: Greater than 10 km
  • Wind: 360 degrees at 4
  • Expected to arise soon, from 20 May at 11:00 UTC, to day 20 of the month at 12:00 UTC
  • Clouds: Scattered at 305 meters
  • Visibility: Greater than 10 km
  • Expected to arise soon, from 20 May at 23:00 UTC, to day 21 of the month at 01:00 UTC
  • Clouds: A few at 305 meters

Airports near SBPA